sensor_id;sensor_type;location;lat;lon;timestamp;pressure;altitude;pressure_sealevel;temperature;humidity
22605;BME280;11469;49.024;8.246;2023-06-24T00:01:04;101190.88;;;16.45;95.21
22605;BME280;11469;49.024;8.246;2023-06-24T00:03:30;101192.88;;;16.45;95.97
22605;BME280;11469;49.024;8.246;2023-06-24T00:05:55;101194.56;;;16.49;96.08
22605;BME280;11469;49.024;8.246;2023-06-24T00:08:22;101193.00;;;16.52;96.07
22605;BME280;11469;49.024;8.246;2023-06-24T00:10:48;101189.38;;;16.55;96.11
22605;BME280;11469;49.024;8.246;2023-06-24T00:13:15;101190.63;;;16.57;95.97
22605;BME280;11469;49.024;8.246;2023-06-24T00:15:41;101182.19;;;16.61;95.51
22605;BME280;11469;49.024;8.246;2023-06-24T00:18:09;101187.03;;;16.60;95.10
22605;BME280;11469;49.024;8.246;2023-06-24T00:20:35;101187.28;;;16.48;95.61
22605;BME280;11469;49.024;8.246;2023-06-24T00:23:01;101185.13;;;16.38;96.32
22605;BME280;11469;49.024;8.246;2023-06-24T00:25:26;101178.00;;;16.21;97.15
22605;BME280;11469;49.024;8.246;2023-06-24T00:27:52;101194.41;;;16.12;97.94
22605;BME280;11469;49.024;8.246;2023-06-24T00:30:18;101188.63;;;16.02;98.56
22605;BME280;11469;49.024;8.246;2023-06-24T00:32:43;101190.13;;;15.96;98.78
22605;BME280;11469;49.024;8.246;2023-06-24T00:35:09;101194.09;;;15.91;99.38
22605;BME280;11469;49.024;8.246;2023-06-24T00:37:40;101189.13;;;15.84;99.52
22605;BME280;11469;49.024;8.246;2023-06-24T00:40:07;101189.56;;;15.86;99.96
22605;BME280;11469;49.024;8.246;2023-06-24T00:42:37;101188.69;;;15.82;99.39
22605;BME280;11469;49.024;8.246;2023-06-24T00:45:03;101194.78;;;15.84;99.36
22605;BME280;11469;49.024;8.246;2023-06-24T00:47:31;101197.31;;;15.89;99.53
22605;BME280;11469;49.024;8.246;2023-06-24T00:49:57;101197.38;;;15.93;99.22
22605;BME280;11469;49.024;8.246;2023-06-24T00:52:22;101188.50;;;15.95;99.27
22605;BME280;11469;49.024;8.246;2023-06-24T00:54:49;101193.72;;;15.92;99.54
22605;BME280;11469;49.024;8.246;2023-06-24T00:57:15;101194.47;;;15.89;99.53
22605;BME280;11469;49.024;8.246;2023-06-24T00:59:43;101191.47;;;15.79;99.71
22605;BME280;11469;49.024;8.246;2023-06-24T01:02:09;101191.91;;;15.81;100.00
22605;BME280;11469;49.024;8.246;2023-06-24T01:04:36;101197.94;;;15.79;100.00
22605;BME280;11469;49.024;8.246;2023-06-24T01:07:03;101186.94;;;15.74;100.00
22605;BME280;11469;49.024;8.246;2023-06-24T01:09:30;101187.31;;;15.73;100.00
22605;BME280;11469;49.024;8.246;2023-06-24T01:11:55;101193.28;;;15.68;100.00
22605;BME280;11469;49.024;8.246;2023-06-24T01:14:21;101196.88;;;15.65;99.99
22605;BME280;11469;49.024;8.246;2023-06-24T01:17:03;101202.75;;;15.56;100.00
22605;BME280;11469;49.024;8.246;2023-06-24T01:19:55;101202.25;;;15.50;100.00
22605;BME280;11469;49.024;8.246;2023-06-24T01:33:51;101203.75;;;15.44;100.00
22605;BME280;11469;49.024;8.246;2023-06-24T01:36:21;101201.75;;;15.45;100.00
22605;BME280;11469;49.024;8.246;2023-06-24T01:39:02;101193.66;;;15.43;100.00
22605;BME280;11469;49.024;8.246;2023-06-24T01:41:32;101190.00;;;15.43;100.00
22605;BME280;11469;49.024;8.246;2023-06-24T01:44:00;101190.91;;;15.47;100.00
22605;BME280;11469;49.024;8.246;2023-06-24T01:46:28;101189.81;;;15.32;100.00
22605;BME280;11469;49.024;8.246;2023-06-24T01:48:57;101193.25;;;15.22;100.00
22605;BME280;11469;49.024;8.246;2023-06-24T01:51:24;101189.91;;;15.16;100.00
22605;BME280;11469;49.024;8.246;2023-06-24T01:53:52;101196.75;;;15.15;100.00
22605;BME280;11469;49.024;8.246;2023-06-24T01:56:20;101196.72;;;15.12;100.00
22605;BME280;11469;49.024;8.246;2023-06-24T01:58:48;101189.44;;;15.11;100.00
22605;BME280;11469;49.024;8.246;2023-06-24T02:01:16;101187.84;;;15.13;100.00
22605;BME280;11469;49.024;8.246;2023-06-24T02:03:42;101192.84;;;15.01;100.00
22605;BME280;11469;49.024;8.246;2023-06-24T02:06:09;101191.16;;;14.96;100.00
22605;BME280;11469;49.024;8.246;2023-06-24T02:08:37;101204.22;;;14.85;100.00
22605;BME280;11469;49.024;8.246;2023-06-24T02:11:04;101201.16;;;14.74;100.00
22605;BME280;11469;49.024;8.246;2023-06-24T02:13:30;101201.38;;;14.66;100.00
22605;BME280;11469;49.024;8.246;2023-06-24T02:16:01;101201.78;;;14.64;100.00
22605;BME280;11469;49.024;8.246;2023-06-24T02:18:32;101212.97;;;14.60;100.00
22605;BME280;11469;49.024;8.246;2023-06-24T02:21:00;101201.78;;;14.64;100.00
22605;BME280;11469;49.024;8.246;2023-06-24T02:23:27;101199.00;;;14.68;100.00
22605;BME280;11469;49.024;8.246;2023-06-24T02:25:54;101197.44;;;14.70;100.00
22605;BME280;11469;49.024;8.246;2023-06-24T02:28:20;101199.09;;;14.71;100.00
22605;BME280;11469;49.024;8.246;2023-06-24T02:30:47;101198.72;;;14.92;100.00
22605;BME280;11469;49.024;8.246;2023-06-24T02:33:12;101202.00;;;14.94;100.00
22605;BME280;11469;49.024;8.246;2023-06-24T02:35:38;101201.47;;;14.88;100.00
22605;BME280;11469;49.024;8.246;2023-06-24T02:38:06;101200.28;;;14.89;100.00
22605;BME280;11469;49.024;8.246;2023-06-24T02:40:32;101205.47;;;14.87;100.00
22605;BME280;11469;49.024;8.246;2023-06-24T02:42:58;101195.00;;;14.88;100.00
22605;BME280;11469;49.024;8.246;2023-06-24T02:45:24;101195.06;;;14.91;100.00
22605;BME280;11469;49.024;8.246;2023-06-24T02:47:49;101195.00;;;14.88;100.00
22605;BME280;11469;49.024;8.246;2023-06-24T02:50:16;101191.66;;;14.82;100.00
22605;BME280;11469;49.024;8.246;2023-06-24T02:52:44;101199.22;;;14.78;100.00
22605;BME280;11469;49.024;8.246;2023-06-24T02:55:10;101199.81;;;14.68;100.00
22605;BME280;11469;49.024;8.246;2023-06-24T02:57:37;101203.47;;;14.69;100.00
22605;BME280;11469;49.024;8.246;2023-06-24T03:00:04;101196.78;;;14.57;100.00
22605;BME280;11469;49.024;8.246;2023-06-24T03:02:35;101204.00;;;14.55;100.00
22605;BME280;11469;49.024;8.246;2023-06-24T03:05:01;101198.63;;;14.50;100.00
22605;BME280;11469;49.024;8.246;2023-06-24T03:07:27;101202.75;;;14.37;100.00
22605;BME280;11469;49.024;8.246;2023-06-24T03:09:53;101204.94;;;14.27;100.00
22605;BME280;11469;49.024;8.246;2023-06-24T03:12:18;101205.59;;;14.21;100.00
22605;BME280;11469;49.024;8.246;2023-06-24T03:14:44;101211.22;;;14.21;100.00
22605;BME280;11469;49.024;8.246;2023-06-24T03:17:10;101210.03;;;14.22;100.00
22605;BME280;11469;49.024;8.246;2023-06-24T03:19:36;101208.78;;;14.19;100.00
22605;BME280;11469;49.024;8.246;2023-06-24T03:22:02;101209.59;;;14.20;100.00
22605;BME280;11469;49.024;8.246;2023-06-24T03:24:28;101215.09;;;14.13;100.00
22605;BME280;11469;49.024;8.246;2023-06-24T03:26:55;101213.19;;;14.17;100.00
22605;BME280;11469;49.024;8.246;2023-06-24T03:29:24;101217.19;;;14.16;100.00
22605;BME280;11469;49.024;8.246;2023-06-24T03:31:50;101217.53;;;14.14;100.00
22605;BME280;11469;49.024;8.246;2023-06-24T03:34:15;101220.34;;;14.14;100.00
22605;BME280;11469;49.024;8.246;2023-06-24T03:36:42;101220.00;;;14.16;100.00
22605;BME280;11469;49.024;8.246;2023-06-24T03:39:08;101226.50;;;14.20;100.00
22605;BME280;11469;49.024;8.246;2023-06-24T03:41:34;101226.59;;;14.23;100.00
22605;BME280;11469;49.024;8.246;2023-06-24T03:44:00;101225.50;;;14.28;100.00
22605;BME280;11469;49.024;8.246;2023-06-24T03:46:25;101234.03;;;14.32;100.00
22605;BME280;11469;49.024;8.246;2023-06-24T03:48:51;101235.31;;;14.34;100.00
22605;BME280;11469;49.024;8.246;2023-06-24T03:51:18;101228.94;;;14.37;100.00
22605;BME280;11469;49.024;8.246;2023-06-24T03:53:43;101231.75;;;14.37;100.00
22605;BME280;11469;49.024;8.246;2023-06-24T03:56:08;101230.94;;;14.37;100.00
22605;BME280;11469;49.024;8.246;2023-06-24T03:58:34;101236.31;;;14.42;100.00
22605;BME280;11469;49.024;8.246;2023-06-24T04:01:01;101224.84;;;14.50;100.00
22605;BME280;11469;49.024;8.246;2023-06-24T04:03:27;101233.19;;;14.63;100.00
22605;BME280;11469;49.024;8.246;2023-06-24T04:05:56;101233.38;;;14.73;100.00
22605;BME280;11469;49.024;8.246;2023-06-24T04:08:22;101229.97;;;14.83;100.00
22605;BME280;11469;49.024;8.246;2023-06-24T04:10:48;101236.22;;;14.92;100.00
22605;BME280;11469;49.024;8.246;2023-06-24T04:13:14;101242.53;;;15.05;100.00
22605;BME280;11469;49.024;8.246;2023-06-24T04:15:39;101237.97;;;15.20;100.00
22605;BME280;11469;49.024;8.246;2023-06-24T04:18:04;101248.69;;;15.30;100.00
22605;BME280;11469;49.024;8.246;2023-06-24T04:20:30;101244.66;;;15.31;100.00
22605;BME280;11469;49.024;8.246;2023-06-24T04:22:55;101253.13;;;15.31;100.00
22605;BME280;11469;49.024;8.246;2023-06-24T04:25:21;101245.03;;;15.30;100.00
22605;BME280;11469;49.024;8.246;2023-06-24T04:27:46;101252.25;;;15.27;100.00
22605;BME280;11469;49.024;8.246;2023-06-24T04:30:11;101241.47;;;15.33;100.00
22605;BME280;11469;49.024;8.246;2023-06-24T04:32:37;101251.66;;;15.37;100.00
22605;BME280;11469;49.024;8.246;2023-06-24T04:35:03;101249.47;;;15.50;100.00
22605;BME280;11469;49.024;8.246;2023-06-24T04:37:29;101252.91;;;15.59;100.00
22605;BME280;11469;49.024;8.246;2023-06-24T04:39:55;101257.91;;;15.69;100.00
22605;BME280;11469;49.024;8.246;2023-06-24T04:42:21;101252.28;;;15.92;100.00
22605;BME280;11469;49.024;8.246;2023-06-24T04:44:48;101251.84;;;16.16;99.93
22605;BME280;11469;49.024;8.246;2023-06-24T04:47:16;101257.97;;;16.45;98.65
22605;BME280;11469;49.024;8.246;2023-06-24T04:49:42;101265.59;;;16.67;98.20
22605;BME280;11469;49.024;8.246;2023-06-24T04:52:08;101272.78;;;16.91;97.12
22605;BME280;11469;49.024;8.246;2023-06-24T04:54:35;101258.03;;;17.08;94.42
22605;BME280;11469;49.024;8.246;2023-06-24T04:57:01;101269.50;;;17.19;93.14
22605;BME280;11469;49.024;8.246;2023-06-24T04:59:26;101266.03;;;17.33;92.39
22605;BME280;11469;49.024;8.246;2023-06-24T05:01:51;101262.03;;;17.37;91.10
22605;BME280;11469;49.024;8.246;2023-06-24T05:04:17;101268.84;;;17.33;91.68
22605;BME280;11469;49.024;8.246;2023-06-24T05:06:42;101271.69;;;17.33;91.97
22605;BME280;11469;49.024;8.246;2023-06-24T05:09:08;101283.13;;;17.40;92.73
22605;BME280;11469;49.024;8.246;2023-06-24T05:11:35;101276.97;;;17.34;92.82
22605;BME280;11469;49.024;8.246;2023-06-24T05:14:01;101279.88;;;17.41;92.98
22605;BME280;11469;49.024;8.246;2023-06-24T05:16:26;101277.16;;;17.52;93.29
22605;BME280;11469;49.024;8.246;2023-06-24T05:18:51;101274.41;;;17.59;93.20
22605;BME280;11469;49.024;8.246;2023-06-24T05:21:17;101280.59;;;17.68;93.81
22605;BME280;11469;49.024;8.246;2023-06-24T05:23:42;101278.66;;;17.76;93.57
22605;BME280;11469;49.024;8.246;2023-06-24T05:26:08;101282.84;;;17.89;93.99
22605;BME280;11469;49.024;8.246;2023-06-24T05:28:33;101287.09;;;18.13;93.93
22605;BME280;11469;49.024;8.246;2023-06-24T05:30:59;101279.63;;;18.38;92.63
22605;BME280;11469;49.024;8.246;2023-06-24T05:33:24;101290.78;;;18.68;91.58
22605;BME280;11469;49.024;8.246;2023-06-24T05:35:49;101291.72;;;18.94;89.01
22605;BME280;11469;49.024;8.246;2023-06-24T05:38:15;101297.94;;;19.13;87.79
22605;BME280;11469;49.024;8.246;2023-06-24T05:40:41;101295.13;;;19.24;85.53
22605;BME280;11469;49.024;8.246;2023-06-24T05:43:06;101293.16;;;19.46;84.20
22605;BME280;11469;49.024;8.246;2023-06-24T05:45:32;101291.16;;;19.50;84.40
22605;BME280;11469;49.024;8.246;2023-06-24T05:47:57;101297.34;;;19.77;83.55
22605;BME280;11469;49.024;8.246;2023-06-24T05:50:22;101295.31;;;19.92;81.20
22605;BME280;11469;49.024;8.246;2023-06-24T05:52:48;101294.56;;;20.19;79.06
22605;BME280;11469;49.024;8.246;2023-06-24T05:55:13;101299.03;;;20.17;78.81
22605;BME280;11469;49.024;8.246;2023-06-24T05:57:39;101302.69;;;20.46;78.42
22605;BME280;11469;49.024;8.246;2023-06-24T06:00:05;101296.19;;;20.56;78.99
22605;BME280;11469;49.024;8.246;2023-06-24T06:02:31;101293.31;;;20.74;78.34
22605;BME280;11469;49.024;8.246;2023-06-24T06:04:56;101289.19;;;20.85;77.44
22605;BME280;11469;49.024;8.246;2023-06-24T06:07:22;101295.22;;;21.09;76.40
22605;BME280;11469;49.024;8.246;2023-06-24T06:09:47;101291.19;;;20.99;77.13
22605;BME280;11469;49.024;8.246;2023-06-24T06:12:13;101300.63;;;20.14;79.67
22605;BME280;11469;49.024;8.246;2023-06-24T06:14:38;101296.97;;;20.60;79.05
22605;BME280;11469;49.024;8.246;2023-06-24T06:17:04;101294.13;;;20.74;78.37
22605;BME280;11469;49.024;8.246;2023-06-24T06:19:31;101299.81;;;20.71;78.58
22605;BME280;11469;49.024;8.246;2023-06-24T06:21:56;101292.00;;;20.93;78.04
22605;BME280;11469;49.024;8.246;2023-06-24T06:24:22;101296.44;;;21.22;76.97
22605;BME280;11469;49.024;8.246;2023-06-24T06:26:47;101291.56;;;21.23;76.22
22605;BME280;11469;49.024;8.246;2023-06-24T06:29:12;101289.84;;;21.36;76.68
22605;BME280;11469;49.024;8.246;2023-06-24T06:31:38;101294.06;;;20.92;77.74
22605;BME280;11469;49.024;8.246;2023-06-24T06:34:04;101294.03;;;20.96;77.70
22605;BME280;11469;49.024;8.246;2023-06-24T06:36:29;101300.91;;;21.23;78.56
22605;BME280;11469;49.024;8.246;2023-06-24T06:38:55;101304.06;;;21.39;75.90
22605;BME280;11469;49.024;8.246;2023-06-24T06:41:20;101296.09;;;21.82;74.80
22605;BME280;11469;49.024;8.246;2023-06-24T06:43:53;101288.19;;;22.11;73.98
22605;BME280;11469;49.024;8.246;2023-06-24T06:46:19;101291.19;;;22.38;73.23
22605;BME280;11469;49.024;8.246;2023-06-24T06:48:45;101293.53;;;22.50;71.75
22605;BME280;11469;49.024;8.246;2023-06-24T06:51:10;101292.66;;;22.57;71.28
22605;BME280;11469;49.024;8.246;2023-06-24T06:53:36;101299.53;;;22.63;70.38
22605;BME280;11469;49.024;8.246;2023-06-24T06:56:01;101295.94;;;22.56;70.40
22605;BME280;11469;49.024;8.246;2023-06-24T06:58:26;101294.75;;;22.05;71.78
22605;BME280;11469;49.024;8.246;2023-06-24T07:00:52;101292.34;;;22.48;70.66
22605;BME280;11469;49.024;8.246;2023-06-24T07:03:17;101293.66;;;22.81;69.07
22605;BME280;11469;49.024;8.246;2023-06-24T07:05:43;101290.31;;;22.90;68.42
22605;BME280;11469;49.024;8.246;2023-06-24T07:08:08;101287.63;;;23.09;68.36
22605;BME280;11469;49.024;8.246;2023-06-24T07:10:34;101289.31;;;23.37;67.20
22605;BME280;11469;49.024;8.246;2023-06-24T07:13:00;101296.81;;;23.58;65.45
22605;BME280;11469;49.024;8.246;2023-06-24T07:15:25;101283.41;;;23.52;64.86
22605;BME280;11469;49.024;8.246;2023-06-24T07:17:53;101284.22;;;23.52;64.85
22605;BME280;11469;49.024;8.246;2023-06-24T07:20:21;101281.88;;;23.43;64.41
22605;BME280;11469;49.024;8.246;2023-06-24T07:22:46;101280.47;;;23.59;64.46
22605;BME280;11469;49.024;8.246;2023-06-24T07:25:12;101283.06;;;23.76;62.91
22605;BME280;11469;49.024;8.246;2023-06-24T07:27:37;101286.91;;;23.93;62.06
22605;BME280;11469;49.024;8.246;2023-06-24T07:30:04;101283.38;;;23.82;62.01
22605;BME280;11469;49.024;8.246;2023-06-24T07:32:31;101277.00;;;23.71;63.51
22605;BME280;11469;49.024;8.246;2023-06-24T07:34:57;101287.47;;;23.54;63.49
22605;BME280;11469;49.024;8.246;2023-06-24T07:37:22;101279.00;;;23.43;64.80
22605;BME280;11469;49.024;8.246;2023-06-24T07:39:48;101279.19;;;23.90;63.53
22605;BME280;11469;49.024;8.246;2023-06-24T07:42:13;101277.66;;;24.09;61.21
22605;BME280;11469;49.024;8.246;2023-06-24T07:44:44;101283.66;;;23.91;61.82
22605;BME280;11469;49.024;8.246;2023-06-24T07:47:10;101278.47;;;24.09;61.01
22605;BME280;11469;49.024;8.246;2023-06-24T07:49:35;101286.84;;;23.97;61.10
22605;BME280;11469;49.024;8.246;2023-06-24T07:52:02;101281.75;;;24.08;61.05
22605;BME280;11469;49.024;8.246;2023-06-24T07:54:27;101274.31;;;24.10;59.40
22605;BME280;11469;49.024;8.246;2023-06-24T07:56:53;101273.97;;;24.08;60.91
22605;BME280;11469;49.024;8.246;2023-06-24T07:59:18;101281.16;;;23.66;61.47
22605;BME280;11469;49.024;8.246;2023-06-24T08:01:44;101279.91;;;23.37;62.70
22605;BME280;11469;49.024;8.246;2023-06-24T08:04:09;101277.66;;;23.82;61.39
22605;BME280;11469;49.024;8.246;2023-06-24T08:06:34;101276.66;;;24.19;60.76
22605;BME280;11469;49.024;8.246;2023-06-24T08:09:00;101266.34;;;24.25;60.55
22605;BME280;11469;49.024;8.246;2023-06-24T08:11:25;101274.56;;;24.46;59.70
22605;BME280;11469;49.024;8.246;2023-06-24T08:13:50;101267.78;;;24.37;59.20
22605;BME280;11469;49.024;8.246;2023-06-24T08:16:17;101276.66;;;24.19;59.96
22605;BME280;11469;49.024;8.246;2023-06-24T08:18:44;101271.63;;;24.27;56.17
22605;BME280;11469;49.024;8.246;2023-06-24T08:21:09;101261.75;;;24.31;56.08
22605;BME280;11469;49.024;8.246;2023-06-24T08:23:34;101264.75;;;24.47;55.53
22605;BME280;11469;49.024;8.246;2023-06-24T08:26:00;101269.72;;;24.16;54.81
22605;BME280;11469;49.024;8.246;2023-06-24T08:28:25;101256.59;;;24.19;55.48
22605;BME280;11469;49.024;8.246;2023-06-24T08:30:50;101261.25;;;24.36;55.76
22605;BME280;11469;49.024;8.246;2023-06-24T08:33:17;101256.63;;;24.42;55.38
22605;BME280;11469;49.024;8.246;2023-06-24T08:35:42;101260.28;;;24.66;55.82
22605;BME280;11469;49.024;8.246;2023-06-24T08:38:08;101251.00;;;25.02;55.37
22605;BME280;11469;49.024;8.246;2023-06-24T08:40:33;101258.63;;;24.89;56.12
22605;BME280;11469;49.024;8.246;2023-06-24T08:42:59;101246.34;;;25.08;54.99
22605;BME280;11469;49.024;8.246;2023-06-24T08:45:25;101262.69;;;24.68;54.40
22605;BME280;11469;49.024;8.246;2023-06-24T08:47:52;101258.09;;;24.94;54.08
22605;BME280;11469;49.024;8.246;2023-06-24T08:50:18;101258.09;;;24.74;54.07
22605;BME280;11469;49.024;8.246;2023-06-24T08:52:51;101246.84;;;24.83;53.49
22605;BME280;11469;49.024;8.246;2023-06-24T08:55:22;101239.50;;;25.22;53.21
22605;BME280;11469;49.024;8.246;2023-06-24T08:57:49;101248.19;;;25.18;52.78
22605;BME280;11469;49.024;8.246;2023-06-24T09:00:15;101246.28;;;24.92;53.72
22605;BME280;11469;49.024;8.246;2023-06-24T09:02:41;101248.63;;;25.17;53.26
22605;BME280;11469;49.024;8.246;2023-06-24T09:05:07;101237.66;;;25.31;53.24
22605;BME280;11469;49.024;8.246;2023-06-24T09:07:33;101247.50;;;25.50;50.26
22605;BME280;11469;49.024;8.246;2023-06-24T09:10:00;101250.53;;;25.59;49.51
22605;BME280;11469;49.024;8.246;2023-06-24T09:12:26;101242.47;;;25.90;48.52
22605;BME280;11469;49.024;8.246;2023-06-24T09:14:52;101240.75;;;26.25;48.53
22605;BME280;11469;49.024;8.246;2023-06-24T09:17:18;101237.16;;;26.05;45.08
22605;BME280;11469;49.024;8.246;2023-06-24T09:19:44;101232.22;;;26.05;44.55
22605;BME280;11469;49.024;8.246;2023-06-24T09:22:09;101235.56;;;25.88;46.39
22605;BME280;11469;49.024;8.246;2023-06-24T09:24:44;101227.13;;;25.97;46.88
22605;BME280;11469;49.024;8.246;2023-06-24T09:27:16;101227.41;;;26.35;46.29
22605;BME280;11469;49.024;8.246;2023-06-24T09:29:43;101222.78;;;26.54;43.97
22605;BME280;11469;49.024;8.246;2023-06-24T09:32:09;101219.75;;;26.73;46.14
22605;BME280;11469;49.024;8.246;2023-06-24T09:34:34;101221.38;;;26.74;45.80
22605;BME280;11469;49.024;8.246;2023-06-24T09:37:00;101213.41;;;26.66;44.32
22605;BME280;11469;49.024;8.246;2023-06-24T09:39:35;101206.13;;;26.61;44.76
22605;BME280;11469;49.024;8.246;2023-06-24T09:42:01;101200.84;;;26.60;43.10
22605;BME280;11469;49.024;8.246;2023-06-24T09:44:29;101198.97;;;26.53;45.46
22605;BME280;11469;49.024;8.246;2023-06-24T09:46:55;101194.25;;;26.30;46.53
22605;BME280;11469;49.024;8.246;2023-06-24T09:49:24;101198.28;;;26.17;44.81
22605;BME280;11469;49.024;8.246;2023-06-24T09:51:50;101189.06;;;26.09;45.75
22605;BME280;11469;49.024;8.246;2023-06-24T09:54:20;101194.06;;;26.21;46.52
22605;BME280;11469;49.024;8.246;2023-06-24T09:56:48;101188.03;;;26.48;45.44
22605;BME280;11469;49.024;8.246;2023-06-24T09:59:15;101181.53;;;26.60;45.32
22605;BME280;11469;49.024;8.246;2023-06-24T10:01:44;101183.25;;;26.58;44.13
22605;BME280;11469;49.024;8.246;2023-06-24T10:04:15;101183.44;;;26.51;44.56
22605;BME280;11469;49.024;8.246;2023-06-24T10:06:41;101181.06;;;26.33;42.95
22605;BME280;11469;49.024;8.246;2023-06-24T10:09:06;101178.09;;;26.36;43.27
22605;BME280;11469;49.024;8.246;2023-06-24T10:11:32;101180.44;;;26.41;43.43
22605;BME280;11469;49.024;8.246;2023-06-24T10:13:57;101173.97;;;26.66;44.45
22605;BME280;11469;49.024;8.246;2023-06-24T10:16:23;101174.13;;;26.75;43.19
22605;BME280;11469;49.024;8.246;2023-06-24T10:18:48;101166.13;;;26.96;43.22
22605;BME280;11469;49.024;8.246;2023-06-24T10:21:15;101166.25;;;27.05;42.53
22605;BME280;11469;49.024;8.246;2023-06-24T10:26:29;101154.78;;;26.47;43.10
22605;BME280;11469;49.024;8.246;2023-06-24T10:37:05;101147.97;;;26.99;41.79
22605;BME280;11469;49.024;8.246;2023-06-24T10:42:39;101136.00;;;27.00;42.01
22605;BME280;11469;49.024;8.246;2023-06-24T10:47:42;101132.44;;;27.47;42.88
22605;BME280;11469;49.024;8.246;2023-06-24T10:50:12;101122.56;;;27.61;41.03
22605;BME280;11469;49.024;8.246;2023-06-24T10:52:40;101131.22;;;27.61;42.01
22605;BME280;11469;49.024;8.246;2023-06-24T10:55:06;101120.25;;;27.05;41.93
22605;BME280;11469;49.024;8.246;2023-06-24T10:57:32;101116.88;;;26.94;40.95
22605;BME280;11469;49.024;8.246;2023-06-24T10:59:57;101117.47;;;27.01;41.19
22605;BME280;11469;49.024;8.246;2023-06-24T11:02:25;101107.47;;;27.44;41.71
22605;BME280;11469;49.024;8.246;2023-06-24T11:05:01;101109.59;;;27.91;40.09
22605;BME280;11469;49.024;8.246;2023-06-24T11:07:30;101106.22;;;28.05;40.20
22605;BME280;11469;49.024;8.246;2023-06-24T11:10:00;101099.47;;;28.21;40.09
22605;BME280;11469;49.024;8.246;2023-06-24T11:12:30;101104.25;;;28.02;39.65
22605;BME280;11469;49.024;8.246;2023-06-24T11:15:01;101099.84;;;28.23;39.32
22605;BME280;11469;49.024;8.246;2023-06-24T11:17:27;101097.09;;;28.41;38.92
22605;BME280;11469;49.024;8.246;2023-06-24T11:19:53;101093.84;;;28.17;38.39
22605;BME280;11469;49.024;8.246;2023-06-24T11:22:19;101091.59;;;27.65;38.88
22605;BME280;11469;49.024;8.246;2023-06-24T11:24:45;101092.50;;;28.09;39.12
22605;BME280;11469;49.024;8.246;2023-06-24T11:27:10;101087.97;;;28.42;38.76
22605;BME280;11469;49.024;8.246;2023-06-24T11:29:36;101081.34;;;28.77;37.03
22605;BME280;11469;49.024;8.246;2023-06-24T11:32:02;101077.59;;;28.45;37.58
22605;BME280;11469;49.024;8.246;2023-06-24T11:34:29;101082.41;;;28.48;37.92
22605;BME280;11469;49.024;8.246;2023-06-24T11:36:54;101080.81;;;28.69;37.70
22605;BME280;11469;49.024;8.246;2023-06-24T11:41:49;101067.22;;;29.00;36.59
22605;BME280;11469;49.024;8.246;2023-06-24T11:44:14;101069.34;;;28.78;36.60
22605;BME280;11469;49.024;8.246;2023-06-24T11:46:40;101067.47;;;28.62;37.75
22605;BME280;11469;49.024;8.246;2023-06-24T11:49:06;101053.03;;;28.62;37.24
22605;BME280;11469;49.024;8.246;2023-06-24T11:51:32;101057.16;;;28.30;37.18
22605;BME280;11469;49.024;8.246;2023-06-24T11:54:03;101059.72;;;28.28;37.98
22605;BME280;11469;49.024;8.246;2023-06-24T11:56:38;101053.22;;;28.02;37.17
22605;BME280;11469;49.024;8.246;2023-06-24T11:59:18;101047.97;;;28.23;36.81
22605;BME280;11469;49.024;8.246;2023-06-24T12:01:54;101045.47;;;28.56;37.42
22605;BME280;11469;49.024;8.246;2023-06-24T12:04:22;101050.56;;;28.73;36.72
22605;BME280;11469;49.024;8.246;2023-06-24T12:06:52;101039.03;;;28.73;36.21
22605;BME280;11469;49.024;8.246;2023-06-24T12:09:17;101040.19;;;28.54;37.54
22605;BME280;11469;49.024;8.246;2023-06-24T12:11:43;101030.53;;;28.48;36.17
22605;BME280;11469;49.024;8.246;2023-06-24T12:14:08;101038.13;;;28.33;37.21
22605;BME280;11469;49.024;8.246;2023-06-24T12:16:35;101027.84;;;28.54;35.64
22605;BME280;11469;49.024;8.246;2023-06-24T12:19:01;101034.00;;;28.65;35.84
22605;BME280;11469;49.024;8.246;2023-06-24T12:21:27;101022.06;;;28.76;34.82
22605;BME280;11469;49.024;8.246;2023-06-24T12:23:54;101018.44;;;28.31;35.65
22605;BME280;11469;49.024;8.246;2023-06-24T12:26:19;101014.28;;;28.63;35.54
22605;BME280;11469;49.024;8.246;2023-06-24T12:28:44;101013.00;;;28.64;35.88
22605;BME280;11469;49.024;8.246;2023-06-24T12:31:11;101017.69;;;29.02;34.85
22605;BME280;11469;49.024;8.246;2023-06-24T12:33:36;101013.81;;;28.96;34.45
22605;BME280;11469;49.024;8.246;2023-06-24T12:36:01;101012.44;;;29.10;35.76
22605;BME280;11469;49.024;8.246;2023-06-24T12:38:27;101001.72;;;29.19;36.12
22605;BME280;11469;49.024;8.246;2023-06-24T12:40:52;100995.06;;;29.50;36.80
22605;BME280;11469;49.024;8.246;2023-06-24T12:43:18;100996.00;;;28.88;35.73
22605;BME280;11469;49.024;8.246;2023-06-24T12:45:43;100994.69;;;29.20;35.47
22605;BME280;11469;49.024;8.246;2023-06-24T12:48:10;100983.69;;;29.46;35.35
22605;BME280;11469;49.024;8.246;2023-06-24T12:50:35;100986.44;;;29.77;34.60
22605;BME280;11469;49.024;8.246;2023-06-24T12:53:01;100982.41;;;29.56;34.81
22605;BME280;11469;49.024;8.246;2023-06-24T12:55:28;100991.59;;;29.73;34.82
22605;BME280;11469;49.024;8.246;2023-06-24T12:57:53;100984.03;;;29.85;34.27
22605;BME280;11469;49.024;8.246;2023-06-24T13:00:22;100982.56;;;29.89;33.73
22605;BME280;11469;49.024;8.246;2023-06-24T13:02:49;100986.75;;;29.88;33.29
22605;BME280;11469;49.024;8.246;2023-06-24T13:05:14;100967.66;;;30.09;33.66
22605;BME280;11469;49.024;8.246;2023-06-24T13:07:40;100974.91;;;29.77;32.89
22605;BME280;11469;49.024;8.246;2023-06-24T13:10:06;100977.44;;;29.84;34.12
22605;BME280;11469;49.024;8.246;2023-06-24T13:12:32;100971.50;;;29.97;34.15
22605;BME280;11469;49.024;8.246;2023-06-24T13:14:58;100983.38;;;29.90;32.58